Time;durP1;ratioP1;P1;durP2;ratioP2;P2;SDS_P1;SDS_P2;PMS_P1;PMS_P2;Temp;Humidity;BMP_temperature;BMP_pressure;BME280_temperature;BME280_humidity;BME280_pressure;Samples;Min_cycle;Max_cycle;Signal;HPM_P1;HPM_P2
2022/03/30 00:00:28;;;;;;;15.35;5.50;;;10.80;95.20;;;;;;5012932;28;20046;-77
2022/03/30 00:02:54;;;;;;;19.00;6.57;;;10.90;94.80;;;;;;5008606;28;20046;-77
2022/03/30 00:05:20;;;;;;;15.18;5.47;;;10.80;94.60;;;;;;5007582;28;20484;-77
2022/03/30 00:07:53;;;;;;;11.95;5.60;;;10.80;94.40;;;;;;5012657;28;20542;-77
2022/03/30 00:10:20;;;;;;;11.73;5.15;;;10.80;94.80;;;;;;5005776;28;20041;-76
2022/03/30 00:12:47;;;;;;;11.80;4.50;;;10.70;94.90;;;;;;4995734;28;20033;-77
2022/03/30 00:15:14;;;;;;;17.23;5.50;;;10.80;94.10;;;;;;5005204;28;20028;-77
2022/03/30 00:17:40;;;;;;;13.30;5.55;;;10.80;93.90;;;;;;5006032;28;20117;-77
2022/03/30 00:20:06;;;;;;;13.80;5.40;;;10.80;93.60;;;;;;5004281;28;20117;-76
2022/03/30 00:22:32;;;;;;;12.80;5.18;;;10.90;92.80;;;;;;5007483;28;20034;-76
2022/03/30 00:24:57;;;;;;;19.48;6.15;;;10.90;92.80;;;;;;5009179;28;20521;-77
2022/03/30 00:27:23;;;;;;;21.33;5.65;;;10.90;92.30;;;;;;5005014;28;20038;-78
2022/03/30 00:29:49;;;;;;;18.38;5.00;;;10.90;92.50;;;;;;4994323;28;20029;-77
2022/03/30 00:32:15;;;;;;;15.55;5.82;;;10.90;93.20;;;;;;5005658;28;20046;-77
2022/03/30 00:34:41;;;;;;;19.65;4.70;;;10.80;93.60;;;;;;5011166;28;20037;-77
2022/03/30 00:37:08;;;;;;;20.27;4.75;;;10.80;92.80;;;;;;5009241;28;20048;-77
2022/03/30 00:39:33;;;;;;;17.25;5.50;;;10.80;93.50;;;;;;5011093;28;20033;-77
2022/03/30 01:16:17;;;;;;;14.38;4.78;;;10.60;91.80;;;;;;2637268;28;22299;-77
2022/03/30 01:18:43;;;;;;;19.90;5.25;;;10.60;92.30;;;;;;4986755;28;20455;-77
2022/03/30 01:21:09;;;;;;;16.85;5.82;;;10.60;92.70;;;;;;4985856;28;20137;-77
2022/03/30 01:23:35;;;;;;;20.73;5.40;;;10.60;92.60;;;;;;4987215;28;20478;-77
2022/03/30 01:26:04;;;;;;;16.25;5.15;;;10.50;93.10;;;;;;4988635;28;20500;-77
2022/03/30 01:28:32;;;;;;;17.35;5.30;;;10.50;93.00;;;;;;4985611;28;20028;-77
2022/03/30 01:33:47;;;;;;;21.00;5.28;;;10.60;92.30;;;;;;4989292;28;20617;-77
2022/03/30 01:36:16;;;;;;;17.92;4.90;;;10.60;91.80;;;;;;4991530;28;20030;-77
2022/03/30 01:38:43;;;;;;;16.88;5.18;;;10.50;92.50;;;;;;4987736;28;20105;-77
2022/03/30 01:41:08;;;;;;;18.55;5.10;;;10.40;94.30;;;;;;4987049;28;20049;-77
2022/03/30 01:43:34;;;;;;;19.25;5.18;;;10.30;94.00;;;;;;4987784;28;20030;-77
2022/03/30 01:46:00;;;;;;;12.52;4.88;;;10.30;93.60;;;;;;4984970;28;20085;-76
2022/03/30 01:48:26;;;;;;;16.10;6.15;;;10.30;92.80;;;;;;4990193;28;20533;-77
2022/03/30 01:50:51;;;;;;;15.13;5.32;;;10.20;94.00;;;;;;4989811;28;20129;-77
2022/03/30 01:53:17;;;;;;;15.27;5.50;;;10.10;94.20;;;;;;4988198;28;20478;-77
2022/03/30 01:55:43;;;;;;;20.60;5.28;;;10.20;93.20;;;;;;4985944;28;20045;-77
2022/03/30 01:58:08;;;;;;;13.95;5.40;;;10.30;92.80;;;;;;4984319;28;20038;-77
2022/03/30 02:00:35;;;;;;;13.57;4.97;;;10.30;94.60;;;;;;4987643;28;20034;-77
2022/03/30 02:03:01;;;;;;;18.35;5.50;;;10.30;94.40;;;;;;4988694;28;20477;-77
2022/03/30 02:05:28;;;;;;;15.85;4.85;;;10.30;94.10;;;;;;4987898;28;20034;-77
2022/03/30 02:07:54;;;;;;;21.05;5.35;;;10.20;95.30;;;;;;4986212;28;20076;-77
2022/03/30 02:10:20;;;;;;;15.90;6.00;;;10.00;96.00;;;;;;4989332;28;21954;-77
2022/03/30 02:12:46;;;;;;;12.57;5.35;;;10.00;95.80;;;;;;4985830;28;20034;-77
2022/03/30 02:15:13;;;;;;;13.27;4.95;;;10.00;96.80;;;;;;4988637;28;20045;-77
2022/03/30 02:17:39;;;;;;;14.13;5.57;;;10.10;95.20;;;;;;4996278;28;20078;-77
2022/03/30 02:20:06;;;;;;;13.68;5.93;;;10.10;94.60;;;;;;5003027;28;20421;-77
2022/03/30 02:22:31;;;;;;;14.23;5.40;;;10.20;94.50;;;;;;5011619;28;20661;-77
2022/03/30 02:24:57;;;;;;;13.48;5.28;;;10.20;95.50;;;;;;5007587;28;20108;-78
2022/03/30 02:27:23;;;;;;;17.45;5.45;;;10.10;95.80;;;;;;5006212;28;20038;-77
2022/03/30 02:29:50;;;;;;;14.15;5.22;;;10.10;95.40;;;;;;5009009;28;20057;-77
2022/03/30 02:32:16;;;;;;;14.30;5.30;;;10.10;97.10;;;;;;5002729;28;20046;-77
2022/03/30 02:34:43;;;;;;;10.25;4.90;;;9.90;97.70;;;;;;5006640;28;20034;-77
2022/03/30 02:37:09;;;;;;;18.77;5.72;;;9.80;98.00;;;;;;5014814;28;20068;-77
2022/03/30 02:39:35;;;;;;;15.25;5.35;;;9.90;97.90;;;;;;5006124;28;20038;-77
2022/03/30 02:42:01;;;;;;;13.23;6.70;;;9.90;96.50;;;;;;5006417;28;20038;-76
2022/03/30 02:44:28;;;;;;;17.48;5.90;;;9.90;96.80;;;;;;5011611;28;20057;-76
2022/03/30 02:46:53;;;;;;;20.45;5.90;;;9.90;97.20;;;;;;5009496;28;20113;-77
2022/03/30 02:49:19;;;;;;;20.05;6.78;;;9.80;97.40;;;;;;5004955;28;20136;-77
2022/03/30 02:51:45;;;;;;;15.07;5.45;;;9.80;97.60;;;;;;5005113;28;20022;-77
2022/03/30 02:54:11;;;;;;;11.82;5.57;;;9.90;96.50;;;;;;5010383;28;20038;-77
2022/03/30 02:56:36;;;;;;;14.68;5.57;;;10.00;96.20;;;;;;4990272;28;20145;-77
2022/03/30 02:59:02;;;;;;;18.02;5.40;;;10.00;95.90;;;;;;5006959;28;20034;-77
2022/03/30 03:01:28;;;;;;;21.90;6.25;;;10.00;95.60;;;;;;5005879;28;20065;-77
2022/03/30 03:03:54;;;;;;;15.30;5.90;;;10.00;95.70;;;;;;5010643;28;20632;-76
2022/03/30 03:06:20;;;;;;;20.45;6.00;;;10.10;95.40;;;;;;5011902;28;20037;-76
2022/03/30 03:08:46;;;;;;;12.85;4.97;;;10.10;95.00;;;;;;5008698;28;20034;-77
2022/03/30 03:11:11;;;;;;;21.83;5.35;;;10.10;94.10;;;;;;5007278;28;20073;-76
2022/03/30 03:13:37;;;;;;;17.20;5.50;;;10.10;93.60;;;;;;5008965;28;20444;-77
2022/03/30 03:16:03;;;;;;;19.83;5.80;;;10.10;93.70;;;;;;4988196;28;20655;-77
2022/03/30 03:18:29;;;;;;;20.15;5.88;;;10.10;94.20;;;;;;5005300;28;20042;-77
2022/03/30 03:20:54;;;;;;;14.32;5.97;;;10.10;94.70;;;;;;5007335;28;20033;-77
2022/03/30 03:23:20;;;;;;;15.60;6.05;;;10.00;94.40;;;;;;5011112;28;20585;-77
2022/03/30 03:25:46;;;;;;;16.50;6.45;;;10.10;95.30;;;;;;5007346;28;20108;-77
2022/03/30 03:28:13;;;;;;;23.50;7.40;;;10.00;96.10;;;;;;5006756;28;20034;-77
2022/03/30 03:30:40;;;;;;;24.63;6.38;;;9.80;97.90;;;;;;5007372;28;20049;-77
2022/03/30 03:33:07;;;;;;;14.32;5.38;;;9.80;97.30;;;;;;5010090;28;20034;-77
2022/03/30 03:35:33;;;;;;;16.05;5.75;;;9.90;96.40;;;;;;4989998;28;20041;-77
2022/03/30 03:38:00;;;;;;;18.40;6.32;;;9.90;97.10;;;;;;5011675;28;20025;-77
2022/03/30 03:40:27;;;;;;;18.73;5.68;;;9.90;96.50;;;;;;4995218;28;20029;-77
2022/03/30 03:42:53;;;;;;;26.00;6.40;;;9.80;96.10;;;;;;5011438;28;20037;-77
2022/03/30 03:45:19;;;;;;;11.48;6.15;;;9.80;96.10;;;;;;5009704;28;21720;-78
2022/03/30 03:47:46;;;;;;;15.25;5.45;;;9.80;95.20;;;;;;4991597;28;20039;-77
2022/03/30 03:50:12;;;;;;;19.00;7.05;;;9.80;95.40;;;;;;5010057;28;20037;-77
2022/03/30 03:52:38;;;;;;;22.70;5.90;;;9.80;95.00;;;;;;5012613;28;20026;-77
2022/03/30 03:55:05;;;;;;;16.13;5.72;;;9.80;95.40;;;;;;5011552;28;20038;-77
2022/03/30 03:57:33;;;;;;;24.92;5.93;;;9.80;95.00;;;;;;5014173;28;20056;-77
2022/03/30 03:59:59;;;;;;;14.10;5.15;;;9.90;94.60;;;;;;5006985;28;20098;-77
2022/03/30 04:02:24;;;;;;;18.10;5.72;;;9.90;94.60;;;;;;5017111;28;20531;-77
2022/03/30 04:04:50;;;;;;;19.45;6.20;;;9.90;94.50;;;;;;5011913;28;20022;-78
2022/03/30 04:07:16;;;;;;;13.93;5.68;;;9.90;94.60;;;;;;5008877;28;20409;-77
2022/03/30 04:09:42;;;;;;;17.13;5.90;;;9.90;94.50;;;;;;5009321;28;20034;-78
2022/03/30 04:12:08;;;;;;;16.90;5.57;;;9.80;94.90;;;;;;5009358;28;20040;-77
2022/03/30 04:14:34;;;;;;;16.30;5.45;;;9.80;94.80;;;;;;5007891;28;20030;-78
2022/03/30 04:16:59;;;;;;;19.17;6.07;;;9.80;94.30;;;;;;5010370;28;20056;-77
2022/03/30 04:19:25;;;;;;;23.65;7.72;;;9.80;95.00;;;;;;5006862;28;20100;-77
2022/03/30 04:21:51;;;;;;;24.50;7.25;;;9.80;95.00;;;;;;5006759;28;20083;-78
2022/03/30 04:24:17;;;;;;;16.70;5.53;;;9.70;95.10;;;;;;5009018;28;20041;-77
2022/03/30 04:26:43;;;;;;;16.98;5.10;;;9.70;94.50;;;;;;5007705;28;20038;-77
2022/03/30 04:29:09;;;;;;;22.38;5.97;;;9.70;94.40;;;;;;5002597;28;20132;-77
2022/03/30 04:31:35;;;;;;;20.75;6.15;;;9.80;94.40;;;;;;4987924;28;20042;-78
2022/03/30 04:34:01;;;;;;;16.27;6.00;;;9.80;94.80;;;;;;5009864;28;20029;-77
2022/03/30 04:36:26;;;;;;;13.18;5.45;;;9.80;94.80;;;;;;5002218;28;20040;-77
2022/03/30 04:38:52;;;;;;;21.63;6.07;;;9.70;95.30;;;;;;5007584;28;20037;-77
2022/03/30 04:41:18;;;;;;;18.73;5.63;;;9.70;94.90;;;;;;5003699;28;20054;-77
2022/03/30 04:43:44;;;;;;;17.65;5.60;;;9.70;95.00;;;;;;5003777;28;20402;-77
2022/03/30 04:46:11;;;;;;;19.63;6.68;;;9.70;94.60;;;;;;4989874;28;20641;-77
2022/03/30 04:48:37;;;;;;;19.33;5.97;;;9.80;93.50;;;;;;5008707;28;20366;-77
2022/03/30 04:51:03;;;;;;;16.27;6.60;;;9.80;94.00;;;;;;5016834;28;20029;-77
2022/03/30 04:53:30;;;;;;;23.15;5.60;;;9.80;93.30;;;;;;5007156;28;20033;-77
2022/03/30 04:55:56;;;;;;;18.40;6.20;;;9.80;93.30;;;;;;5014508;28;20026;-77
2022/03/30 04:58:22;;;;;;;17.85;6.05;;;9.80;93.30;;;;;;5003449;28;20030;-77
2022/03/30 05:00:48;;;;;;;24.13;6.28;;;9.80;93.20;;;;;;5007499;28;20433;-78
2022/03/30 05:03:15;;;;;;;14.07;5.47;;;9.80;93.60;;;;;;4992826;28;20037;-77
2022/03/30 05:05:40;;;;;;;14.05;5.32;;;9.80;92.70;;;;;;5010375;28;20040;-77
2022/03/30 05:08:06;;;;;;;14.70;5.28;;;9.80;92.50;;;;;;5009753;28;20034;-78
2022/03/30 05:10:32;;;;;;;24.05;5.85;;;9.90;94.50;;;;;;5007842;28;20033;-77
2022/03/30 05:12:59;;;;;;;11.93;5.18;;;9.80;94.10;;;;;;5005565;28;20040;-77
2022/03/30 05:15:28;;;;;;;13.38;5.80;;;9.80;93.80;;;;;;5008165;28;20034;-77
2022/03/30 05:17:54;;;;;;;12.65;5.50;;;9.80;93.50;;;;;;5007525;28;20389;-77
2022/03/30 05:20:21;;;;;;;20.95;6.07;;;9.80;93.60;;;;;;4988746;28;20123;-77
2022/03/30 05:22:46;;;;;;;13.85;5.22;;;9.80;92.90;;;;;;5010828;28;20041;-77
2022/03/30 05:25:15;;;;;;;19.77;6.60;;;9.90;93.20;;;;;;5005263;28;20083;-78
2022/03/30 05:27:41;;;;;;;17.63;6.07;;;9.80;93.20;;;;;;5009985;28;20026;-78
2022/03/30 05:30:08;;;;;;;20.63;5.60;;;9.80;93.50;;;;;;5004176;28;20034;-77
2022/03/30 05:32:35;;;;;;;17.05;4.78;;;9.80;93.00;;;;;;4988099;28;20052;-77
2022/03/30 05:35:01;;;;;;;22.67;6.65;;;9.80;95.30;;;;;;5010350;28;20077;-78
2022/03/30 05:37:27;;;;;;;17.33;6.65;;;9.80;95.10;;;;;;5015732;28;20037;-77
2022/03/30 05:39:53;;;;;;;20.13;5.18;;;9.80;95.50;;;;;;4990787;28;20116;-78
2022/03/30 05:42:21;;;;;;;17.13;5.90;;;9.80;95.50;;;;;;4984966;28;20046;-78
2022/03/30 05:44:47;;;;;;;18.27;7.00;;;9.80;96.60;;;;;;5009087;28;20044;-78
2022/03/30 05:47:14;;;;;;;15.35;5.55;;;9.80;97.20;;;;;;4985236;28;20029;-77
2022/03/30 05:49:41;;;;;;;17.15;5.63;;;9.70;98.20;;;;;;5007349;28;20065;-77
2022/03/30 05:52:07;;;;;;;16.13;5.68;;;9.70;98.70;;;;;;5008233;28;20078;-77
2022/03/30 05:54:34;;;;;;;15.02;6.18;;;9.70;99.20;;;;;;5012761;28;20698;-78
2022/03/30 05:57:02;;;;;;;9.23;4.40;;;9.70;99.80;;;;;;5005846;28;20030;-77
2022/03/30 05:59:32;;;;;;;;;;;9.70;99.90;;;;;;5005930;28;20037;-78
2022/03/30 06:01:59;;;;;;;9.40;4.90;;;9.70;99.90;;;;;;5007717;28;19922;-78
2022/03/30 06:04:25;;;;;;;13.75;5.22;;;9.70;99.90;;;;;;5007867;28;20255;-78
2022/03/30 06:06:51;;;;;;;20.33;5.20;;;9.80;99.90;;;;;;5007494;28;20508;-77
2022/03/30 06:09:18;;;;;;;23.00;5.28;;;9.70;99.90;;;;;;4993666;28;20040;-78
2022/03/30 06:11:44;;;;;;;13.63;4.13;;;9.80;99.90;;;;;;4992499;28;20410;-77
2022/03/30 06:14:10;;;;;;;19.15;5.38;;;9.70;99.90;;;;;;4989153;28;20026;-77
2022/03/30 06:16:37;;;;;;;13.30;4.80;;;9.70;99.90;;;;;;5008710;28;20060;-77
2022/03/30 06:19:03;;;;;;;18.10;5.03;;;9.70;99.90;;;;;;5000759;28;20053;-77
2022/03/30 06:21:29;;;;;;;18.27;5.25;;;9.70;99.90;;;;;;5003656;28;20103;-78
2022/03/30 06:23:56;;;;;;;17.27;5.10;;;9.70;99.90;;;;;;5006106;28;20038;-78
2022/03/30 06:26:21;;;;;;;12.52;4.57;;;9.70;99.90;;;;;;4997925;28;20374;-78
2022/03/30 06:28:49;;;;;;;21.00;5.45;;;9.70;99.90;;;;;;5004968;28;20034;-77
2022/03/30 06:31:17;;;;;;;15.13;5.22;;;9.70;99.90;;;;;;5005493;28;20038;-78
2022/03/30 06:33:44;;;;;;;15.05;5.55;;;9.70;99.90;;;;;;5009633;28;20061;-77
2022/03/30 06:36:10;;;;;;;12.23;4.75;;;9.70;99.90;;;;;;4988473;28;20040;-78
2022/03/30 06:38:36;;;;;;;15.98;6.03;;;9.70;99.90;;;;;;4997476;28;20049;-77
2022/03/30 06:41:03;;;;;;;16.30;4.97;;;9.70;99.90;;;;;;5013599;28;20030;-77
2022/03/30 06:43:29;;;;;;;7.65;3.75;;;9.70;99.90;;;;;;4993894;28;20037;-78
2022/03/30 06:45:55;;;;;;;17.35;4.72;;;9.70;99.90;;;;;;5013528;28;20468;-77
2022/03/30 06:48:21;;;;;;;14.80;5.03;;;9.70;99.90;;;;;;5016144;28;20036;-77
2022/03/30 06:50:47;;;;;;;10.68;4.30;;;9.70;99.90;;;;;;5012303;28;20105;-78
2022/03/30 06:53:13;;;;;;;11.25;4.43;;;9.70;99.90;;;;;;4996433;28;20030;-78
2022/03/30 06:55:38;;;;;;;14.90;5.65;;;9.70;99.90;;;;;;4997145;28;20141;-78
2022/03/30 06:58:05;;;;;;;10.27;4.65;;;9.70;99.90;;;;;;5009958;28;20076;-77
2022/03/30 07:00:31;;;;;;;11.02;4.18;;;9.80;99.90;;;;;;5012340;28;20467;-77
2022/03/30 07:02:57;;;;;;;19.00;4.78;;;9.80;99.90;;;;;;5007494;28;20046;-77
2022/03/30 07:05:23;;;;;;;15.35;5.65;;;9.80;99.90;;;;;;5010285;28;20827;-78
2022/03/30 07:10:33;;;;;;;19.27;5.20;;;9.70;99.90;;;;;;5007540;28;20053;-77
2022/03/30 07:13:03;;;;;;;15.80;5.18;;;9.80;99.90;;;;;;5007217;28;20029;-78
2022/03/30 07:15:30;;;;;;;11.35;4.55;;;9.70;99.90;;;;;;5008980;28;20446;-77
2022/03/30 07:18:00;;;;;;;16.80;5.53;;;9.80;99.90;;;;;;5013706;28;20136;-77
2022/03/30 07:20:27;;;;;;;14.48;5.28;;;9.70;99.90;;;;;;4988738;28;20408;-77
2022/03/30 07:22:55;;;;;;;11.32;5.20;;;9.80;99.90;;;;;;5001757;28;20038;-77
2022/03/30 07:25:22;;;;;;;24.37;7.33;;;9.80;99.90;;;;;;5009783;28;20390;-77
2022/03/30 07:27:53;;;;;;;14.20;5.97;;;9.90;99.90;;;;;;5009156;28;20406;-77
2022/03/30 07:30:20;;;;;;;14.65;5.82;;;9.80;99.90;;;;;;5007465;28;20042;-76
2022/03/30 07:32:48;;;;;;;22.13;6.10;;;9.90;99.90;;;;;;5013275;28;20105;-77
2022/03/30 07:35:16;;;;;;;16.17;5.55;;;9.90;99.90;;;;;;5014484;28;20462;-77
2022/03/30 07:37:43;;;;;;;12.48;4.88;;;10.00;99.90;;;;;;5009191;28;20037;-77
2022/03/30 07:40:12;;;;;;;16.35;5.72;;;10.10;99.90;;;;;;5014134;28;20120;-77
2022/03/30 07:42:38;;;;;;;16.52;6.53;;;10.10;99.90;;;;;;4991392;28;20404;-77
2022/03/30 07:45:05;;;;;;;15.82;5.65;;;10.10;99.90;;;;;;5012151;28;20481;-77
2022/03/30 07:47:31;;;;;;;9.13;5.60;;;10.20;99.90;;;;;;5011245;28;20544;-77
2022/03/30 07:49:57;;;;;;;21.73;5.35;;;10.20;99.90;;;;;;4993009;28;20037;-78
2022/03/30 07:52:24;;;;;;;11.25;4.85;;;10.20;99.90;;;;;;5010989;28;20406;-78
2022/03/30 07:54:50;;;;;;;15.77;5.45;;;10.10;99.90;;;;;;5007270;28;20149;-78
2022/03/30 07:57:15;;;;;;;18.88;5.57;;;10.10;99.90;;;;;;4984175;28;20093;-78
2022/03/30 07:59:42;;;;;;;18.20;5.82;;;10.20;99.90;;;;;;4988574;28;20030;-78
2022/03/30 08:02:08;;;;;;;14.68;5.38;;;10.30;99.90;;;;;;4995496;28;20046;-78
2022/03/30 08:04:34;;;;;;;15.23;6.50;;;10.30;99.90;;;;;;5008895;28;20036;-78
2022/03/30 08:07:00;;;;;;;13.35;4.95;;;10.30;99.90;;;;;;5009117;28;20124;-77
2022/03/30 08:09:25;;;;;;;19.33;5.72;;;10.30;99.90;;;;;;5009296;28;20100;-77
2022/03/30 08:11:52;;;;;;;13.68;5.88;;;10.30;99.90;;;;;;5012088;28;20021;-77
2022/03/30 08:14:19;;;;;;;17.65;5.60;;;10.30;99.90;;;;;;5004851;28;20037;-78
2022/03/30 08:16:44;;;;;;;13.38;5.15;;;10.30;99.90;;;;;;4971799;28;1118645;-77
2022/03/30 08:19:10;;;;;;;14.07;5.60;;;10.30;99.90;;;;;;5009101;28;20048;-77
2022/03/30 08:24:22;;;;;;;15.93;6.30;;;10.40;99.90;;;;;;5012503;28;20492;-78
2022/03/30 08:26:48;;;;;;;18.63;5.20;;;10.40;99.90;;;;;;4996721;28;20036;-77
2022/03/30 08:29:14;;;;;;;22.60;6.20;;;10.50;99.90;;;;;;5005828;28;20176;-77
2022/03/30 08:31:40;;;;;;;16.55;5.55;;;10.50;99.90;;;;;;5016052;28;20073;-77
2022/03/30 08:34:06;;;;;;;14.23;5.05;;;10.50;99.90;;;;;;5014588;28;20209;-77
2022/03/30 08:36:31;;;;;;;16.63;5.30;;;10.60;99.90;;;;;;4992184;28;20026;-78
2022/03/30 08:38:59;;;;;;;13.63;5.32;;;10.60;99.90;;;;;;4986395;28;20034;-77
2022/03/30 08:41:25;;;;;;;23.00;6.75;;;10.60;99.90;;;;;;5013438;28;20049;-77
2022/03/30 08:43:51;;;;;;;12.13;5.28;;;10.50;99.90;;;;;;5010118;28;20025;-78
2022/03/30 08:46:17;;;;;;;16.05;4.82;;;10.60;99.90;;;;;;5011596;28;20397;-78
2022/03/30 08:48:43;;;;;;;14.77;5.05;;;10.50;99.90;;;;;;5010674;28;20033;-77
2022/03/30 08:51:10;;;;;;;15.50;5.65;;;10.60;99.90;;;;;;5007967;28;20036;-77
2022/03/30 08:53:36;;;;;;;20.20;6.20;;;10.60;99.90;;;;;;5010698;28;20108;-77
2022/03/30 08:56:02;;;;;;;19.17;5.00;;;10.60;99.90;;;;;;4990417;28;20081;-78
2022/03/30 08:58:28;;;;;;;15.40;6.25;;;10.70;99.90;;;;;;5008031;28;20030;-77
2022/03/30 09:01:06;;;;;;;16.15;6.13;;;10.70;99.90;;;;;;5010608;28;20049;-77
2022/03/30 09:03:33;;;;;;;18.15;5.57;;;10.60;99.90;;;;;;5008938;28;20164;-77
2022/03/30 09:05:58;;;;;;;15.95;5.55;;;10.70;99.90;;;;;;5003224;28;20060;-78
2022/03/30 09:08:27;;;;;;;17.50;6.22;;;10.70;99.90;;;;;;5016699;28;20029;-77
2022/03/30 09:10:54;;;;;;;18.30;6.10;;;10.80;99.90;;;;;;5010459;28;20034;-77
2022/03/30 09:13:20;;;;;;;18.25;5.72;;;10.80;99.90;;;;;;5012013;28;20038;-78
2022/03/30 09:15:51;;;;;;;19.30;5.03;;;10.80;99.90;;;;;;4990913;28;20065;-77
2022/03/30 09:18:18;;;;;;;17.35;5.97;;;10.80;99.90;;;;;;5011804;28;20057;-77
2022/03/30 09:20:51;;;;;;;18.75;6.80;;;10.90;99.90;;;;;;5008234;28;20133;-77
2022/03/30 09:23:17;;;;;;;15.38;6.07;;;10.90;99.90;;;;;;4991249;28;20084;-78
2022/03/30 09:25:45;;;;;;;19.52;5.90;;;11.00;99.90;;;;;;5008652;28;20045;-78
2022/03/30 09:28:11;;;;;;;19.90;6.47;;;11.00;99.90;;;;;;5019193;28;20581;-78
2022/03/30 09:30:37;;;;;;;7.63;3.92;;;11.00;99.90;;;;;;5015463;28;20041;-77
2022/03/30 09:33:03;;;;;;;19.10;6.22;;;10.90;99.90;;;;;;5010470;28;20037;-77
2022/03/30 09:35:38;;;;;;;18.30;4.63;;;10.80;99.90;;;;;;4991473;28;20034;-78
2022/03/30 09:38:11;;;;;;;12.50;4.03;;;10.70;99.90;;;;;;4981854;28;20452;-78
2022/03/30 09:41:03;;;;;;;28.30;5.53;;;10.80;99.90;;;;;;5009252;28;20049;-78
2022/03/30 09:43:33;;;;;;;15.70;4.75;;;10.80;99.90;;;;;;5009622;28;20037;-78
2022/03/30 09:46:02;;;;;;;19.10;3.67;;;11.00;99.90;;;;;;4992013;28;20362;-78
2022/03/30 09:48:29;;;;;;;7.97;3.15;;;11.20;99.90;;;;;;4986165;28;20057;-78
2022/03/30 09:50:56;;;;;;;8.52;2.60;;;11.10;99.90;;;;;;4991402;28;20045;-78
2022/03/30 09:53:25;;;;;;;17.98;5.97;;;11.20;99.90;;;;;;5002055;28;20044;-78
2022/03/30 09:55:56;;;;;;;12.43;4.28;;;11.20;99.90;;;;;;4986898;28;20018;-78
2022/03/30 09:58:23;;;;;;;11.38;5.38;;;11.00;99.90;;;;;;5012250;28;20057;-78
2022/03/30 10:01:17;;;;;;;16.43;6.07;;;10.90;99.90;;;;;;5002349;28;20055;-78
2022/03/30 10:03:48;;;;;;;13.52;4.60;;;10.80;99.90;;;;;;5008790;28;20030;-78
2022/03/30 10:06:26;;;;;;;11.50;3.17;;;10.80;99.90;;;;;;4999498;28;20026;-77
2022/03/30 10:08:53;;;;;;;13.60;3.90;;;10.70;99.90;;;;;;5010438;28;20409;-79
2022/03/30 10:11:21;;;;;;;10.55;4.43;;;10.60;99.90;;;;;;5008593;28;20038;-78
2022/03/30 10:13:52;;;;;;;14.00;3.72;;;10.60;99.90;;;;;;5008915;28;20170;-77
2022/03/30 10:16:20;;;;;;;14.93;5.18;;;10.70;99.90;;;;;;5001051;28;20913;-77
2022/03/30 10:18:47;;;;;;;14.90;5.93;;;10.70;99.90;;;;;;4988841;28;20057;-78
2022/03/30 10:21:47;;;;;;;14.00;4.80;;;10.70;99.90;;;;;;5006357;28;20069;-78
2022/03/30 10:24:48;;;;;;;8.65;4.07;;;10.70;99.90;;;;;;5001694;28;20141;-78
2022/03/30 10:27:22;;;;;;;10.57;4.78;;;10.70;99.90;;;;;;5008549;28;20551;-78
2022/03/30 10:29:52;;;;;;;15.32;5.30;;;10.90;99.90;;;;;;5011378;28;20376;-78
2022/03/30 10:32:23;;;;;;;13.60;3.60;;;11.00;99.90;;;;;;5007828;28;20041;-78
2022/03/30 10:35:02;;;;;;;15.38;6.05;;;11.20;99.90;;;;;;5008201;28;20039;-78
2022/03/30 10:37:42;;;;;;;7.63;3.60;;;11.20;99.90;;;;;;5012301;28;20056;-78
2022/03/30 10:40:13;;;;;;;24.85;5.30;;;11.10;99.90;;;;;;5005633;28;20042;-78
2022/03/30 10:42:48;;;;;;;11.27;4.28;;;11.10;99.90;;;;;;5011295;28;20045;-78
2022/03/30 10:45:34;;;;;;;20.83;7.00;;;11.10;99.90;;;;;;5006644;28;20109;-79
2022/03/30 10:48:08;;;;;;;18.83;5.10;;;11.10;99.90;;;;;;5011847;28;20041;-78
2022/03/30 10:50:35;;;;;;;13.95;5.75;;;11.10;99.90;;;;;;5009068;28;20140;-77
2022/03/30 10:53:01;;;;;;;13.50;5.20;;;11.00;99.90;;;;;;5004659;28;20148;-77
2022/03/30 10:55:29;;;;;;;5.22;3.20;;;10.90;99.90;;;;;;5007854;28;20137;-78
2022/03/30 10:58:01;;;;;;;;;;;10.80;99.90;;;;;;5006173;28;20033;-78
2022/03/30 11:00:37;;;;;;;7.43;2.95;;;10.80;99.90;;;;;;5000690;28;20285;-78
2022/03/30 11:03:13;;;;;;;5.68;3.08;;;10.80;99.90;;;;;;5004129;28;20061;-78
2022/03/30 11:05:42;;;;;;;11.38;4.70;;;10.50;99.90;;;;;;5000984;28;20037;-78
2022/03/30 11:08:34;;;;;;;8.35;3.67;;;10.50;99.90;;;;;;5010078;28;20072;-78
2022/03/30 11:11:03;;;;;;;15.73;5.25;;;10.50;99.90;;;;;;5007731;28;20069;-77
2022/03/30 11:13:29;;;;;;;16.25;5.15;;;10.60;99.90;;;;;;5006798;28;20036;-77
2022/03/30 11:15:59;;;;;;;13.68;4.90;;;10.70;99.90;;;;;;5002467;28;20038;-77
2022/03/30 11:18:26;;;;;;;14.68;5.90;;;10.70;99.90;;;;;;5007975;28;20132;-77
2022/03/30 11:21:12;;;;;;;9.48;5.10;;;10.80;99.90;;;;;;5002586;28;20045;-77
2022/03/30 11:24:04;;;;;;;11.23;5.47;;;10.80;99.90;;;;;;5010550;28;20055;-77
2022/03/30 11:26:48;;;;;;;10.98;5.53;;;10.90;99.90;;;;;;5001424;28;20535;-77
2022/03/30 11:29:48;;;;;;;12.13;6.32;;;10.90;99.90;;;;;;5006737;28;20025;-77
2022/03/30 11:32:23;;;;;;;7.28;4.43;;;10.80;99.90;;;;;;5002963;28;20037;-77
2022/03/30 11:34:56;;;;;;;7.10;3.33;;;10.70;99.90;;;;;;4991732;28;20080;-77
2022/03/30 11:37:43;;;;;;;12.10;4.40;;;10.70;99.90;;;;;;5003756;28;20627;-76
2022/03/30 11:40:16;;;;;;;13.85;5.13;;;10.80;99.90;;;;;;5006897;28;20121;-76
2022/03/30 11:42:45;;;;;;;9.70;5.20;;;10.80;99.90;;;;;;5012709;28;20105;-76
2022/03/30 11:45:13;;;;;;;14.45;5.32;;;10.80;99.90;;;;;;5015793;28;20023;-77
2022/03/30 11:47:44;;;;;;;9.15;5.40;;;10.80;99.90;;;;;;5014593;28;20568;-77
2022/03/30 11:50:14;;;;;;;10.18;4.53;;;10.90;99.90;;;;;;5002855;28;20390;-77
2022/03/30 11:52:41;;;;;;;11.32;4.60;;;10.80;99.90;;;;;;5009878;28;20033;-77
2022/03/30 11:55:10;;;;;;;8.32;4.88;;;10.80;99.90;;;;;;5010928;28;20065;-77
2022/03/30 11:57:40;;;;;;;8.02;4.35;;;10.60;99.90;;;;;;5008879;28;20040;-77
2022/03/30 12:00:09;;;;;;;6.80;3.40;;;10.40;99.90;;;;;;5015395;28;20038;-77
2022/03/30 12:02:35;;;;;;;;;;;10.40;99.90;;;;;;5011199;28;20049;-77
2022/03/30 12:05:01;;;;;;;11.30;4.88;;;10.30;99.90;;;;;;5011090;28;20007;-77
2022/03/30 12:07:27;;;;;;;7.13;4.72;;;10.30;99.90;;;;;;5010895;28;20057;-77
2022/03/30 12:09:54;;;;;;;8.32;4.35;;;10.30;99.90;;;;;;5015996;28;20037;-77
2022/03/30 12:12:31;;;;;;;7.60;3.83;;;10.20;99.90;;;;;;5008453;28;20034;-77
2022/03/30 12:15:02;;;;;;;10.10;4.57;;;10.30;99.90;;;;;;5014127;28;20040;-77
2022/03/30 12:17:28;;;;;;;9.43;5.13;;;10.30;99.90;;;;;;5007532;28;20049;-77
2022/03/30 12:19:55;;;;;;;9.35;5.15;;;10.30;99.90;;;;;;5002566;28;20042;-77
2022/03/30 12:22:21;;;;;;;10.02;4.70;;;10.40;99.90;;;;;;5011285;28;20041;-77
2022/03/30 12:24:47;;;;;;;7.50;5.07;;;10.40;99.90;;;;;;5010918;28;20042;-77
2022/03/30 12:27:13;;;;;;;5.10;4.60;;;10.40;99.90;;;;;;5009003;28;20037;-77
2022/03/30 12:29:39;;;;;;;7.43;4.65;;;10.40;99.90;;;;;;5006459;28;20060;-77
2022/03/30 12:32:06;;;;;;;8.15;3.70;;;10.30;99.90;;;;;;5010553;28;20052;-76
2022/03/30 12:34:34;;;;;;;4.75;3.20;;;10.50;99.90;;;;;;5012982;28;20040;-77
2022/03/30 12:37:08;;;;;;;9.77;4.03;;;10.40;99.90;;;;;;4990911;28;20397;-76
2022/03/30 12:39:42;;;;;;;3.42;2.53;;;10.50;99.90;;;;;;5002104;28;20041;-77
2022/03/30 12:42:09;;;;;;;11.52;5.43;;;10.40;99.90;;;;;;5008546;28;20045;-77
2022/03/30 12:44:38;;;;;;;10.98;6.22;;;10.30;99.90;;;;;;5005976;28;20052;-77
2022/03/30 12:47:05;;;;;;;9.57;5.28;;;10.30;99.90;;;;;;5009602;28;20610;-77
2022/03/30 12:49:39;;;;;;;18.65;7.53;;;10.30;99.90;;;;;;5011322;28;20084;-77
2022/03/30 12:52:15;;;;;;;9.65;5.57;;;10.30;99.90;;;;;;5011604;28;20481;-76
2022/03/30 12:54:44;;;;;;;13.18;6.00;;;10.40;99.90;;;;;;4992152;28;20041;-77
2022/03/30 12:57:12;;;;;;;10.43;6.30;;;10.50;99.90;;;;;;5008390;28;20034;-76
2022/03/30 12:59:41;;;;;;;9.18;5.15;;;10.50;99.90;;;;;;5008942;28;20030;-76
2022/03/30 13:02:18;;;;;;;9.07;4.18;;;10.50;99.90;;;;;;5009543;28;20049;-76
2022/03/30 13:04:54;;;;;;;8.50;4.75;;;10.60;99.90;;;;;;5009119;28;20401;-77
2022/03/30 13:07:24;;;;;;;9.45;5.32;;;10.50;99.90;;;;;;4989545;28;20038;-77
2022/03/30 13:09:59;;;;;;;10.35;4.95;;;10.60;99.90;;;;;;5007257;28;20060;-77
2022/03/30 13:12:43;;;;;;;7.22;4.60;;;10.50;99.90;;;;;;5009164;28;20045;-77
2022/03/30 13:15:12;;;;;;;6.65;4.55;;;10.30;99.90;;;;;;5006636;28;20045;-77
2022/03/30 13:18:00;;;;;;;;;;;10.30;99.90;;;;;;5006618;28;20088;-77
2022/03/30 13:20:26;;;;;;;;;;;10.30;99.90;;;;;;5007269;28;19913;-76
2022/03/30 13:23:18;;;;;;;14.13;6.22;;;10.30;99.90;;;;;;5011616;28;20016;-77
2022/03/30 13:25:45;;;;;;;9.35;5.10;;;10.30;99.90;;;;;;5002651;28;20400;-77
2022/03/30 13:28:25;;;;;;;12.13;6.88;;;10.30;99.90;;;;;;5005467;28;20037;-77
2022/03/30 13:30:51;;;;;;;15.57;7.95;;;10.30;99.90;;;;;;5008328;28;20046;-77